sensor_id;sensor_type;location;lat;lon;timestamp;temperature;humidity
54898;DHT22;40800;52.704;6.398;2023-04-10T00:02:17;8.40;99.90
54898;DHT22;40800;52.704;6.398;2023-04-10T00:04:43;8.40;99.90
54898;DHT22;40800;52.704;6.398;2023-04-10T00:07:08;8.30;99.90
54898;DHT22;40800;52.704;6.398;2023-04-10T00:09:34;8.20;99.90
54898;DHT22;40800;52.704;6.398;2023-04-10T00:12:00;8.20;99.90
54898;DHT22;40800;52.704;6.398;2023-04-10T00:14:26;8.20;99.90
54898;DHT22;40800;52.704;6.398;2023-04-10T00:16:51;8.20;99.90
54898;DHT22;40800;52.704;6.398;2023-04-10T00:19:17;8.20;99.90
54898;DHT22;40800;52.704;6.398;2023-04-10T00:21:43;8.20;99.90
54898;DHT22;40800;52.704;6.398;2023-04-10T00:24:08;8.20;99.90
54898;DHT22;40800;52.704;6.398;2023-04-10T00:26:34;8.10;99.90
54898;DHT22;40800;52.704;6.398;2023-04-10T00:29:01;8.10;99.90
54898;DHT22;40800;52.704;6.398;2023-04-10T00:31:27;8.10;99.90
54898;DHT22;40800;52.704;6.398;2023-04-10T00:33:53;8.10;99.90
54898;DHT22;40800;52.704;6.398;2023-04-10T00:36:18;8.00;99.90
54898;DHT22;40800;52.704;6.398;2023-04-10T00:38:44;8.00;99.90
54898;DHT22;40800;52.704;6.398;2023-04-10T00:41:10;8.00;99.90
54898;DHT22;40800;52.704;6.398;2023-04-10T00:43:36;8.00;99.90
54898;DHT22;40800;52.704;6.398;2023-04-10T00:46:02;7.90;99.90
54898;DHT22;40800;52.704;6.398;2023-04-10T00:48:28;7.90;99.90
54898;DHT22;40800;52.704;6.398;2023-04-10T00:50:54;7.90;99.90
54898;DHT22;40800;52.704;6.398;2023-04-10T00:53:20;7.90;99.90
54898;DHT22;40800;52.704;6.398;2023-04-10T00:55:47;7.90;99.90
54898;DHT22;40800;52.704;6.398;2023-04-10T00:58:13;7.80;99.90
54898;DHT22;40800;52.704;6.398;2023-04-10T01:00:39;7.80;92.00
54898;DHT22;40800;52.704;6.398;2023-04-10T01:03:08;7.90;91.30
54898;DHT22;40800;52.704;6.398;2023-04-10T01:05:43;7.80;85.70
54898;DHT22;40800;52.704;6.398;2023-04-10T01:08:21;7.90;84.50
54898;DHT22;40800;52.704;6.398;2023-04-10T01:11:02;7.80;92.80
54898;DHT22;40800;52.704;6.398;2023-04-10T01:13:40;7.80;96.10
54898;DHT22;40800;52.704;6.398;2023-04-10T01:16:17;7.80;99.90
54898;DHT22;40800;52.704;6.398;2023-04-10T01:18:52;7.80;99.90
54898;DHT22;40800;52.704;6.398;2023-04-10T01:21:20;7.70;99.90
54898;DHT22;40800;52.704;6.398;2023-04-10T01:27:11;7.70;99.90
54898;DHT22;40800;52.704;6.398;2023-04-10T01:29:42;7.70;99.90
54898;DHT22;40800;52.704;6.398;2023-04-10T01:32:16;7.60;99.90
54898;DHT22;40800;52.704;6.398;2023-04-10T01:34:48;7.50;99.90
54898;DHT22;40800;52.704;6.398;2023-04-10T01:37:28;7.50;99.90
54898;DHT22;40800;52.704;6.398;2023-04-10T01:39:58;7.50;99.90
54898;DHT22;40800;52.704;6.398;2023-04-10T01:42:27;7.50;99.90
54898;DHT22;40800;52.704;6.398;2023-04-10T01:44:53;7.60;99.90
54898;DHT22;40800;52.704;6.398;2023-04-10T01:47:20;7.60;99.90
54898;DHT22;40800;52.704;6.398;2023-04-10T01:49:48;7.60;99.90
54898;DHT22;40800;52.704;6.398;2023-04-10T01:52:14;7.60;99.90
54898;DHT22;40800;52.704;6.398;2023-04-10T01:54:41;7.60;99.90
54898;DHT22;40800;52.704;6.398;2023-04-10T01:57:09;7.60;99.90
54898;DHT22;40800;52.704;6.398;2023-04-10T01:59:38;7.60;99.90
54898;DHT22;40800;52.704;6.398;2023-04-10T02:02:04;7.50;99.90
54898;DHT22;40800;52.704;6.398;2023-04-10T02:04:32;7.50;99.90
54898;DHT22;40800;52.704;6.398;2023-04-10T02:07:03;7.50;99.90
54898;DHT22;40800;52.704;6.398;2023-04-10T02:10:06;7.50;99.90
54898;DHT22;40800;52.704;6.398;2023-04-10T02:15:09;7.40;99.90
54898;DHT22;40800;52.704;6.398;2023-04-10T02:17:36;7.40;99.90
54898;DHT22;40800;52.704;6.398;2023-04-10T02:20:03;7.50;99.90
54898;DHT22;40800;52.704;6.398;2023-04-10T02:22:30;7.70;99.90
54898;DHT22;40800;52.704;6.398;2023-04-10T02:24:56;7.60;99.90
54898;DHT22;40800;52.704;6.398;2023-04-10T02:27:30;7.70;99.90
54898;DHT22;40800;52.704;6.398;2023-04-10T02:29:56;7.70;99.90
54898;DHT22;40800;52.704;6.398;2023-04-10T02:32:22;7.80;99.90
54898;DHT22;40800;52.704;6.398;2023-04-10T02:34:48;7.70;99.90
54898;DHT22;40800;52.704;6.398;2023-04-10T02:37:13;7.80;99.90
54898;DHT22;40800;52.704;6.398;2023-04-10T02:39:39;7.80;99.90
54898;DHT22;40800;52.704;6.398;2023-04-10T02:42:04;7.90;99.90
54898;DHT22;40800;52.704;6.398;2023-04-10T02:44:30;8.00;99.90
54898;DHT22;40800;52.704;6.398;2023-04-10T02:46:55;8.00;99.90
54898;DHT22;40800;52.704;6.398;2023-04-10T02:49:21;8.00;99.90
54898;DHT22;40800;52.704;6.398;2023-04-10T02:51:46;7.90;99.90
54898;DHT22;40800;52.704;6.398;2023-04-10T02:54:12;7.90;99.90
54898;DHT22;40800;52.704;6.398;2023-04-10T02:56:37;7.90;99.90
54898;DHT22;40800;52.704;6.398;2023-04-10T02:59:03;7.90;99.90
54898;DHT22;40800;52.704;6.398;2023-04-10T03:01:29;8.00;99.90
54898;DHT22;40800;52.704;6.398;2023-04-10T03:03:55;7.90;99.90
54898;DHT22;40800;52.704;6.398;2023-04-10T03:06:22;7.90;99.90
54898;DHT22;40800;52.704;6.398;2023-04-10T03:08:50;7.90;99.90
54898;DHT22;40800;52.704;6.398;2023-04-10T03:11:16;8.00;99.90
54898;DHT22;40800;52.704;6.398;2023-04-10T03:13:41;8.00;99.90
54898;DHT22;40800;52.704;6.398;2023-04-10T03:16:07;8.00;99.90
54898;DHT22;40800;52.704;6.398;2023-04-10T03:18:33;8.00;99.90
54898;DHT22;40800;52.704;6.398;2023-04-10T03:20:59;8.00;99.90
54898;DHT22;40800;52.704;6.398;2023-04-10T03:23:26;8.00;99.90
54898;DHT22;40800;52.704;6.398;2023-04-10T03:25:52;7.90;99.90
54898;DHT22;40800;52.704;6.398;2023-04-10T03:28:19;7.90;99.90
54898;DHT22;40800;52.704;6.398;2023-04-10T03:30:45;7.90;99.90
54898;DHT22;40800;52.704;6.398;2023-04-10T03:33:10;7.90;99.90
54898;DHT22;40800;52.704;6.398;2023-04-10T03:35:36;7.90;99.90
54898;DHT22;40800;52.704;6.398;2023-04-10T03:38:01;7.90;99.90
54898;DHT22;40800;52.704;6.398;2023-04-10T03:40:27;7.80;99.90
54898;DHT22;40800;52.704;6.398;2023-04-10T03:42:52;7.80;99.90
54898;DHT22;40800;52.704;6.398;2023-04-10T03:45:18;7.70;99.90
54898;DHT22;40800;52.704;6.398;2023-04-10T03:47:43;7.70;99.90
54898;DHT22;40800;52.704;6.398;2023-04-10T03:50:09;7.70;99.90
54898;DHT22;40800;52.704;6.398;2023-04-10T03:52:35;7.70;99.90
54898;DHT22;40800;52.704;6.398;2023-04-10T03:55:01;7.70;99.90
54898;DHT22;40800;52.704;6.398;2023-04-10T03:57:26;7.70;99.90
54898;DHT22;40800;52.704;6.398;2023-04-10T03:59:52;7.70;99.90
54898;DHT22;40800;52.704;6.398;2023-04-10T04:02:17;7.70;99.90
54898;DHT22;40800;52.704;6.398;2023-04-10T04:04:43;7.80;99.90
54898;DHT22;40800;52.704;6.398;2023-04-10T04:07:08;7.80;99.90
54898;DHT22;40800;52.704;6.398;2023-04-10T04:09:35;7.80;99.90
54898;DHT22;40800;52.704;6.398;2023-04-10T04:12:01;7.90;99.90
54898;DHT22;40800;52.704;6.398;2023-04-10T04:14:26;7.90;99.90
54898;DHT22;40800;52.704;6.398;2023-04-10T04:16:52;7.90;99.90
54898;DHT22;40800;52.704;6.398;2023-04-10T04:19:17;7.90;99.90
54898;DHT22;40800;52.704;6.398;2023-04-10T04:21:43;7.90;99.90
54898;DHT22;40800;52.704;6.398;2023-04-10T04:24:08;8.00;99.90
54898;DHT22;40800;52.704;6.398;2023-04-10T04:26:34;7.90;99.90
54898;DHT22;40800;52.704;6.398;2023-04-10T04:28:59;7.90;99.90
54898;DHT22;40800;52.704;6.398;2023-04-10T04:31:25;7.90;99.90
54898;DHT22;40800;52.704;6.398;2023-04-10T04:33:59;8.00;99.90
54898;DHT22;40800;52.704;6.398;2023-04-10T04:36:28;8.00;99.90
54898;DHT22;40800;52.704;6.398;2023-04-10T04:38:54;8.00;99.90
54898;DHT22;40800;52.704;6.398;2023-04-10T04:41:19;8.10;99.90
54898;DHT22;40800;52.704;6.398;2023-04-10T04:43:45;8.10;99.90
54898;DHT22;40800;52.704;6.398;2023-04-10T04:46:15;8.10;99.90
54898;DHT22;40800;52.704;6.398;2023-04-10T04:48:41;8.10;99.90
54898;DHT22;40800;52.704;6.398;2023-04-10T04:51:06;8.10;99.90
54898;DHT22;40800;52.704;6.398;2023-04-10T04:53:32;8.10;99.90
54898;DHT22;40800;52.704;6.398;2023-04-10T04:55:57;8.00;99.90
54898;DHT22;40800;52.704;6.398;2023-04-10T04:58:23;8.10;99.90
54898;DHT22;40800;52.704;6.398;2023-04-10T05:00:50;8.00;99.90
54898;DHT22;40800;52.704;6.398;2023-04-10T05:03:16;8.00;99.90
54898;DHT22;40800;52.704;6.398;2023-04-10T05:05:42;8.00;99.90
54898;DHT22;40800;52.704;6.398;2023-04-10T05:08:07;7.90;99.90
54898;DHT22;40800;52.704;6.398;2023-04-10T05:10:33;8.00;99.90
54898;DHT22;40800;52.704;6.398;2023-04-10T05:12:59;8.00;99.90
54898;DHT22;40800;52.704;6.398;2023-04-10T05:15:24;8.00;99.90
54898;DHT22;40800;52.704;6.398;2023-04-10T05:17:50;8.00;99.90
54898;DHT22;40800;52.704;6.398;2023-04-10T05:20:18;8.00;99.90
54898;DHT22;40800;52.704;6.398;2023-04-10T05:22:44;8.00;99.90
54898;DHT22;40800;52.704;6.398;2023-04-10T05:25:10;7.90;99.90
54898;DHT22;40800;52.704;6.398;2023-04-10T05:27:35;7.90;99.90
54898;DHT22;40800;52.704;6.398;2023-04-10T05:30:02;7.80;99.90
54898;DHT22;40800;52.704;6.398;2023-04-10T05:32:28;7.90;99.90
54898;DHT22;40800;52.704;6.398;2023-04-10T05:34:54;7.90;99.90
54898;DHT22;40800;52.704;6.398;2023-04-10T05:37:19;8.00;99.90
54898;DHT22;40800;52.704;6.398;2023-04-10T05:39:45;8.10;99.90
54898;DHT22;40800;52.704;6.398;2023-04-10T05:42:10;8.20;98.40
54898;DHT22;40800;52.704;6.398;2023-04-10T05:44:36;8.20;96.90
54898;DHT22;40800;52.704;6.398;2023-04-10T05:47:02;8.20;98.60
54898;DHT22;40800;52.704;6.398;2023-04-10T05:49:28;8.30;90.30
54898;DHT22;40800;52.704;6.398;2023-04-10T05:51:53;8.20;99.90
54898;DHT22;40800;52.704;6.398;2023-04-10T05:54:19;8.30;99.90
54898;DHT22;40800;52.704;6.398;2023-04-10T05:56:44;8.50;99.90
54898;DHT22;40800;52.704;6.398;2023-04-10T05:59:10;8.50;99.90
54898;DHT22;40800;52.704;6.398;2023-04-10T06:01:38;8.60;99.90
54898;DHT22;40800;52.704;6.398;2023-04-10T06:04:04;8.60;99.90
54898;DHT22;40800;52.704;6.398;2023-04-10T06:06:30;8.70;99.90
54898;DHT22;40800;52.704;6.398;2023-04-10T06:08:57;8.80;99.90
54898;DHT22;40800;52.704;6.398;2023-04-10T06:11:22;8.80;94.50
54898;DHT22;40800;52.704;6.398;2023-04-10T06:13:48;8.90;92.20
54898;DHT22;40800;52.704;6.398;2023-04-10T06:16:13;8.90;82.50
54898;DHT22;40800;52.704;6.398;2023-04-10T06:18:41;8.80;99.90
54898;DHT22;40800;52.704;6.398;2023-04-10T06:21:06;8.80;99.90
54898;DHT22;40800;52.704;6.398;2023-04-10T06:23:32;9.00;99.90
54898;DHT22;40800;52.704;6.398;2023-04-10T06:25:58;9.10;99.90
54898;DHT22;40800;52.704;6.398;2023-04-10T06:28:24;9.10;99.90
54898;DHT22;40800;52.704;6.398;2023-04-10T06:30:49;9.20;96.80
54898;DHT22;40800;52.704;6.398;2023-04-10T06:33:15;9.20;94.30
54898;DHT22;40800;52.704;6.398;2023-04-10T06:35:40;9.30;94.60
54898;DHT22;40800;52.704;6.398;2023-04-10T06:38:06;9.50;5.30
54898;DHT22;40800;52.704;6.398;2023-04-10T06:40:32;9.40;1.00
54898;DHT22;40800;52.704;6.398;2023-04-10T06:42:59;9.30;1.00
54898;DHT22;40800;52.704;6.398;2023-04-10T06:45:25;9.50;1.00
54898;DHT22;40800;52.704;6.398;2023-04-10T06:47:51;9.50;1.00
54898;DHT22;40800;52.704;6.398;2023-04-10T06:50:17;9.70;1.00
54898;DHT22;40800;52.704;6.398;2023-04-10T06:52:47;9.80;1.00
54898;DHT22;40800;52.704;6.398;2023-04-10T06:55:12;9.80;1.00
54898;DHT22;40800;52.704;6.398;2023-04-10T06:57:38;9.80;1.00
54898;DHT22;40800;52.704;6.398;2023-04-10T07:00:06;9.80;1.00
54898;DHT22;40800;52.704;6.398;2023-04-10T07:02:32;9.80;1.00
54898;DHT22;40800;52.704;6.398;2023-04-10T07:04:58;10.00;1.00
54898;DHT22;40800;52.704;6.398;2023-04-10T07:07:23;10.30;1.00
54898;DHT22;40800;52.704;6.398;2023-04-10T07:09:49;10.30;1.00
54898;DHT22;40800;52.704;6.398;2023-04-10T07:12:15;10.20;99.90
54898;DHT22;40800;52.704;6.398;2023-04-10T07:14:41;10.20;99.90
54898;DHT22;40800;52.704;6.398;2023-04-10T07:17:07;10.40;99.90
54898;DHT22;40800;52.704;6.398;2023-04-10T07:19:32;10.60;99.90
54898;DHT22;40800;52.704;6.398;2023-04-10T07:21:58;10.70;99.90
54898;DHT22;40800;52.704;6.398;2023-04-10T07:24:24;10.60;99.90
54898;DHT22;40800;52.704;6.398;2023-04-10T07:26:49;10.70;99.90
54898;DHT22;40800;52.704;6.398;2023-04-10T07:29:15;10.90;99.90
54898;DHT22;40800;52.704;6.398;2023-04-10T07:31:41;11.10;99.90
54898;DHT22;40800;52.704;6.398;2023-04-10T07:34:06;11.30;99.90
54898;DHT22;40800;52.704;6.398;2023-04-10T07:36:32;11.40;99.90
54898;DHT22;40800;52.704;6.398;2023-04-10T07:38:58;11.40;99.90
54898;DHT22;40800;52.704;6.398;2023-04-10T07:41:23;11.60;99.90
54898;DHT22;40800;52.704;6.398;2023-04-10T07:43:49;11.70;99.90
54898;DHT22;40800;52.704;6.398;2023-04-10T07:46:16;11.80;99.90
54898;DHT22;40800;52.704;6.398;2023-04-10T07:48:42;12.00;91.50
54898;DHT22;40800;52.704;6.398;2023-04-10T07:51:08;12.10;78.00
54898;DHT22;40800;52.704;6.398;2023-04-10T07:53:35;12.30;87.10
54898;DHT22;40800;52.704;6.398;2023-04-10T07:56:01;12.40;99.90
54898;DHT22;40800;52.704;6.398;2023-04-10T07:58:27;12.40;49.30
54898;DHT22;40800;52.704;6.398;2023-04-10T08:00:53;12.70;1.00
54898;DHT22;40800;52.704;6.398;2023-04-10T08:03:18;12.80;1.00
54898;DHT22;40800;52.704;6.398;2023-04-10T08:05:44;12.70;1.00
54898;DHT22;40800;52.704;6.398;2023-04-10T08:08:10;13.00;1.00
54898;DHT22;40800;52.704;6.398;2023-04-10T08:10:36;13.20;99.90
54898;DHT22;40800;52.704;6.398;2023-04-10T08:13:03;13.30;99.90
54898;DHT22;40800;52.704;6.398;2023-04-10T08:15:28;13.40;99.90
54898;DHT22;40800;52.704;6.398;2023-04-10T08:17:54;13.50;99.90
54898;DHT22;40800;52.704;6.398;2023-04-10T08:20:19;13.70;99.90
54898;DHT22;40800;52.704;6.398;2023-04-10T08:22:45;13.60;99.90
54898;DHT22;40800;52.704;6.398;2023-04-10T08:25:11;13.60;99.90
54898;DHT22;40800;52.704;6.398;2023-04-10T08:27:36;13.70;99.90
54898;DHT22;40800;52.704;6.398;2023-04-10T08:30:02;13.80;99.90
54898;DHT22;40800;52.704;6.398;2023-04-10T08:32:28;13.70;99.90
54898;DHT22;40800;52.704;6.398;2023-04-10T08:34:55;13.50;99.90
54898;DHT22;40800;52.704;6.398;2023-04-10T08:37:21;13.60;99.90
54898;DHT22;40800;52.704;6.398;2023-04-10T08:39:46;13.80;99.90
54898;DHT22;40800;52.704;6.398;2023-04-10T08:42:12;13.70;99.90
54898;DHT22;40800;52.704;6.398;2023-04-10T08:44:38;13.80;99.90
54898;DHT22;40800;52.704;6.398;2023-04-10T08:47:04;13.60;99.90
54898;DHT22;40800;52.704;6.398;2023-04-10T08:49:38;13.80;99.90
54898;DHT22;40800;52.704;6.398;2023-04-10T08:52:07;13.90;99.90
54898;DHT22;40800;52.704;6.398;2023-04-10T08:54:34;13.90;99.90
54898;DHT22;40800;52.704;6.398;2023-04-10T08:57:02;14.00;99.90
54898;DHT22;40800;52.704;6.398;2023-04-10T08:59:29;14.40;99.90
54898;DHT22;40800;52.704;6.398;2023-04-10T09:01:56;14.30;82.50
54898;DHT22;40800;52.704;6.398;2023-04-10T09:04:25;14.40;95.30
54898;DHT22;40800;52.704;6.398;2023-04-10T09:06:52;14.60;97.60
54898;DHT22;40800;52.704;6.398;2023-04-10T09:09:17;14.90;86.20
54898;DHT22;40800;52.704;6.398;2023-04-10T09:14:22;14.70;66.30
54898;DHT22;40800;52.704;6.398;2023-04-10T09:16:48;14.90;65.90
54898;DHT22;40800;52.704;6.398;2023-04-10T09:19:29;15.30;33.90
54898;DHT22;40800;52.704;6.398;2023-04-10T09:21:55;15.40;1.00
54898;DHT22;40800;52.704;6.398;2023-04-10T09:24:22;15.50;1.00
54898;DHT22;40800;52.704;6.398;2023-04-10T09:26:48;15.60;1.00
54898;DHT22;40800;52.704;6.398;2023-04-10T09:29:13;15.30;1.00
54898;DHT22;40800;52.704;6.398;2023-04-10T09:31:41;15.20;1.00
54898;DHT22;40800;52.704;6.398;2023-04-10T09:34:21;15.10;1.00
54898;DHT22;40800;52.704;6.398;2023-04-10T09:36:58;15.10;1.00
54898;DHT22;40800;52.704;6.398;2023-04-10T09:39:36;15.10;99.90
54898;DHT22;40800;52.704;6.398;2023-04-10T09:42:02;15.00;99.90
54898;DHT22;40800;52.704;6.398;2023-04-10T09:44:31;15.20;99.90
54898;DHT22;40800;52.704;6.398;2023-04-10T09:46:58;15.40;99.90
54898;DHT22;40800;52.704;6.398;2023-04-10T09:49:49;14.90;99.90
54898;DHT22;40800;52.704;6.398;2023-04-10T09:54:46;15.00;1.00
54898;DHT22;40800;52.704;6.398;2023-04-10T09:57:16;15.20;99.90
54898;DHT22;40800;52.704;6.398;2023-04-10T09:59:50;15.10;99.90
54898;DHT22;40800;52.704;6.398;2023-04-10T10:02:18;15.20;99.90
54898;DHT22;40800;52.704;6.398;2023-04-10T10:04:44;15.20;99.90
54898;DHT22;40800;52.704;6.398;2023-04-10T10:07:18;15.80;99.90
54898;DHT22;40800;52.704;6.398;2023-04-10T10:09:46;16.00;99.90
54898;DHT22;40800;52.704;6.398;2023-04-10T10:12:15;16.40;99.90
54898;DHT22;40800;52.704;6.398;2023-04-10T10:15:08;16.20;99.90
54898;DHT22;40800;52.704;6.398;2023-04-10T10:17:41;16.50;99.90
54898;DHT22;40800;52.704;6.398;2023-04-10T10:20:09;16.30;99.90
54898;DHT22;40800;52.704;6.398;2023-04-10T10:22:36;16.30;99.90
54898;DHT22;40800;52.704;6.398;2023-04-10T10:25:02;16.50;99.90
54898;DHT22;40800;52.704;6.398;2023-04-10T10:27:30;16.00;99.90
54898;DHT22;40800;52.704;6.398;2023-04-10T10:29:59;15.80;99.90
54898;DHT22;40800;52.704;6.398;2023-04-10T10:32:26;15.90;99.90
54898;DHT22;40800;52.704;6.398;2023-04-10T10:34:52;16.40;99.90
54898;DHT22;40800;52.704;6.398;2023-04-10T10:37:19;16.30;99.90
54898;DHT22;40800;52.704;6.398;2023-04-10T10:47:29;15.80;99.90
54898;DHT22;40800;52.704;6.398;2023-04-10T10:49:56;15.80;99.90
54898;DHT22;40800;52.704;6.398;2023-04-10T10:52:36;16.10;99.90
54898;DHT22;40800;52.704;6.398;2023-04-10T10:57:48;15.60;99.90
54898;DHT22;40800;52.704;6.398;2023-04-10T11:00:15;15.80;99.90
54898;DHT22;40800;52.704;6.398;2023-04-10T11:02:41;15.90;99.90
54898;DHT22;40800;52.704;6.398;2023-04-10T11:05:07;16.20;99.90
54898;DHT22;40800;52.704;6.398;2023-04-10T11:13:30;16.20;99.90
54898;DHT22;40800;52.704;6.398;2023-04-10T11:15:58;15.90;99.90
54898;DHT22;40800;52.704;6.398;2023-04-10T11:21:18;16.30;99.90
54898;DHT22;40800;52.704;6.398;2023-04-10T11:31:56;16.10;99.90
54898;DHT22;40800;52.704;6.398;2023-04-10T11:34:22;16.20;99.90
54898;DHT22;40800;52.704;6.398;2023-04-10T11:36:48;16.30;99.90
54898;DHT22;40800;52.704;6.398;2023-04-10T11:39:15;16.50;99.90
54898;DHT22;40800;52.704;6.398;2023-04-10T11:44:15;16.40;99.90
54898;DHT22;40800;52.704;6.398;2023-04-10T11:46:43;16.20;99.90
54898;DHT22;40800;52.704;6.398;2023-04-10T11:49:11;16.20;99.90
54898;DHT22;40800;52.704;6.398;2023-04-10T11:51:38;16.20;99.90
54898;DHT22;40800;52.704;6.398;2023-04-10T11:54:16;16.30;99.90
54898;DHT22;40800;52.704;6.398;2023-04-10T11:56:42;16.30;99.90
54898;DHT22;40800;52.704;6.398;2023-04-10T11:59:09;16.50;99.90
54898;DHT22;40800;52.704;6.398;2023-04-10T12:01:44;16.70;99.90
54898;DHT22;40800;52.704;6.398;2023-04-10T12:04:18;16.60;99.90
54898;DHT22;40800;52.704;6.398;2023-04-10T12:06:47;16.80;99.90
54898;DHT22;40800;52.704;6.398;2023-04-10T12:09:18;17.00;99.90
54898;DHT22;40800;52.704;6.398;2023-04-10T12:12:04;17.10;99.90
54898;DHT22;40800;52.704;6.398;2023-04-10T12:14:36;17.10;99.90
54898;DHT22;40800;52.704;6.398;2023-04-10T12:17:04;17.30;99.90
54898;DHT22;40800;52.704;6.398;2023-04-10T12:19:31;17.40;99.90
54898;DHT22;40800;52.704;6.398;2023-04-10T12:21:58;17.30;99.90
54898;DHT22;40800;52.704;6.398;2023-04-10T12:25:02;17.50;99.90
54898;DHT22;40800;52.704;6.398;2023-04-10T12:27:27;17.30;99.90
54898;DHT22;40800;52.704;6.398;2023-04-10T12:29:55;17.20;99.90
54898;DHT22;40800;52.704;6.398;2023-04-10T12:32:21;17.10;99.90
54898;DHT22;40800;52.704;6.398;2023-04-10T12:34:52;17.20;99.90
54898;DHT22;40800;52.704;6.398;2023-04-10T12:37:18;16.60;99.90
54898;DHT22;40800;52.704;6.398;2023-04-10T12:39:44;16.10;99.90
54898;DHT22;40800;52.704;6.398;2023-04-10T12:42:11;16.00;99.90
54898;DHT22;40800;52.704;6.398;2023-04-10T12:45:13;16.00;99.90
54898;DHT22;40800;52.704;6.398;2023-04-10T12:47:46;15.90;99.90
54898;DHT22;40800;52.704;6.398;2023-04-10T12:50:17;16.00;99.90
54898;DHT22;40800;52.704;6.398;2023-04-10T12:52:45;15.90;99.90
54898;DHT22;40800;52.704;6.398;2023-04-10T12:55:16;15.90;99.90
54898;DHT22;40800;52.704;6.398;2023-04-10T12:57:43;16.10;99.90
54898;DHT22;40800;52.704;6.398;2023-04-10T13:00:11;16.10;99.90
54898;DHT22;40800;52.704;6.398;2023-04-10T13:02:38;16.10;99.90
54898;DHT22;40800;52.704;6.398;2023-04-10T13:05:04;16.20;99.90
54898;DHT22;40800;52.704;6.398;2023-04-10T13:07:30;16.20;99.90
54898;DHT22;40800;52.704;6.398;2023-04-10T13:09:57;16.10;99.90
54898;DHT22;40800;52.704;6.398;2023-04-10T13:12:22;16.10;99.90
54898;DHT22;40800;52.704;6.398;2023-04-10T13:14:49;16.00;99.90
54898;DHT22;40800;52.704;6.398;2023-04-10T13:17:15;16.10;99.90
54898;DHT22;40800;52.704;6.398;2023-04-10T13:19:40;16.20;99.90
54898;DHT22;40800;52.704;6.398;2023-04-10T13:22:06;16.00;99.90
54898;DHT22;40800;52.704;6.398;2023-04-10T13:24:31;16.00;99.90
54898;DHT22;40800;52.704;6.398;2023-04-10T13:26:57;16.00;99.90
54898;DHT22;40800;52.704;6.398;2023-04-10T13:29:23;15.80;99.90
54898;DHT22;40800;52.704;6.398;2023-04-10T13:31:49;15.80;99.90
54898;DHT22;40800;52.704;6.398;2023-04-10T13:34:15;15.80;99.90
54898;DHT22;40800;52.704;6.398;2023-04-10T13:36:40;15.60;99.90
54898;DHT22;40800;52.704;6.398;2023-04-10T13:39:06;15.60;99.90
54898;DHT22;40800;52.704;6.398;2023-04-10T13:41:32;15.60;99.90
54898;DHT22;40800;52.704;6.398;2023-04-10T13:43:57;15.50;99.90
54898;DHT22;40800;52.704;6.398;2023-04-10T13:46:23;15.40;99.90
54898;DHT22;40800;52.704;6.398;2023-04-10T13:48:48;15.40;99.90
54898;DHT22;40800;52.704;6.398;2023-04-10T13:51:14;15.50;99.90
54898;DHT22;40800;52.704;6.398;2023-04-10T13:53:39;15.50;99.90
54898;DHT22;40800;52.704;6.398;2023-04-10T13:56:05;15.80;99.90
54898;DHT22;40800;52.704;6.398;2023-04-10T13:58:31;15.70;99.90
54898;DHT22;40800;52.704;6.398;2023-04-10T14:00:58;15.60;99.90
54898;DHT22;40800;52.704;6.398;2023-04-10T14:03:24;15.60;99.90
54898;DHT22;40800;52.704;6.398;2023-04-10T14:05:49;15.60;99.90
54898;DHT22;40800;52.704;6.398;2023-04-10T14:08:17;15.60;99.90
54898;DHT22;40800;52.704;6.398;2023-04-10T14:10:43;15.50;99.90
54898;DHT22;40800;52.704;6.398;2023-04-10T14:13:10;15.60;99.90
54898;DHT22;40800;52.704;6.398;2023-04-10T14:15:36;15.70;99.90
54898;DHT22;40800;52.704;6.398;2023-04-10T14:18:01;15.70;99.90
54898;DHT22;40800;52.704;6.398;2023-04-10T14:20:27;15.50;99.90
54898;DHT22;40800;52.704;6.398;2023-04-10T14:22:52;15.50;99.90
54898;DHT22;40800;52.704;6.398;2023-04-10T14:25:18;15.50;99.90
54898;DHT22;40800;52.704;6.398;2023-04-10T14:27:44;15.40;99.90
54898;DHT22;40800;52.704;6.398;2023-04-10T14:30:10;15.50;99.90
54898;DHT22;40800;52.704;6.398;2023-04-10T14:32:37;15.60;99.90
54898;DHT22;40800;52.704;6.398;2023-04-10T14:35:02;15.50;99.90
54898;DHT22;40800;52.704;6.398;2023-04-10T14:37:28;15.30;99.90
54898;DHT22;40800;52.704;6.398;2023-04-10T14:39:54;15.50;99.90
54898;DHT22;40800;52.704;6.398;2023-04-10T14:42:20;15.40;99.90
54898;DHT22;40800;52.704;6.398;2023-04-10T14:44:47;15.50;99.90
54898;DHT22;40800;52.704;6.398;2023-04-10T14:47:13;15.40;99.90
54898;DHT22;40800;52.704;6.398;2023-04-10T14:49:39;15.30;99.90
54898;DHT22;40800;52.704;6.398;2023-04-10T14:52:05;15.30;99.90
54898;DHT22;40800;52.704;6.398;2023-04-10T14:54:31;15.40;99.90
54898;DHT22;40800;52.704;6.398;2023-04-10T14:56:56;15.30;99.90
54898;DHT22;40800;52.704;6.398;2023-04-10T14:59:22;15.10;99.90
54898;DHT22;40800;52.704;6.398;2023-04-10T15:01:48;15.20;99.90
54898;DHT22;40800;52.704;6.398;2023-04-10T15:04:13;15.00;99.90
54898;DHT22;40800;52.704;6.398;2023-04-10T15:06:39;14.90;99.90
54898;DHT22;40800;52.704;6.398;2023-04-10T15:09:05;14.70;99.90
54898;DHT22;40800;52.704;6.398;2023-04-10T15:11:30;14.60;99.90
54898;DHT22;40800;52.704;6.398;2023-04-10T15:13:58;14.50;99.90
54898;DHT22;40800;52.704;6.398;2023-04-10T15:16:24;14.60;99.90
54898;DHT22;40800;52.704;6.398;2023-04-10T15:18:49;14.30;1.00
54898;DHT22;40800;52.704;6.398;2023-04-10T15:21:15;14.30;1.00
54898;DHT22;40800;52.704;6.398;2023-04-10T15:23:41;14.20;1.00
54898;DHT22;40800;52.704;6.398;2023-04-10T15:26:13;14.40;1.00
54898;DHT22;40800;52.704;6.398;2023-04-10T15:28:40;14.40;1.00
54898;DHT22;40800;52.704;6.398;2023-04-10T15:31:06;14.40;1.00
54898;DHT22;40800;52.704;6.398;2023-04-10T15:33:31;14.30;1.00
54898;DHT22;40800;52.704;6.398;2023-04-10T15:35:57;14.20;1.00
54898;DHT22;40800;52.704;6.398;2023-04-10T15:38:23;14.30;1.00
54898;DHT22;40800;52.704;6.398;2023-04-10T15:40:53;14.40;1.00
54898;DHT22;40800;52.704;6.398;2023-04-10T15:43:18;14.50;99.90
54898;DHT22;40800;52.704;6.398;2023-04-10T15:45:44;14.50;99.90
54898;DHT22;40800;52.704;6.398;2023-04-10T15:48:11;14.40;99.90
54898;DHT22;40800;52.704;6.398;2023-04-10T15:50:36;14.50;99.90
54898;DHT22;40800;52.704;6.398;2023-04-10T15:53:02;14.60;99.90
54898;DHT22;40800;52.704;6.398;2023-04-10T15:55:28;14.50;99.90
54898;DHT22;40800;52.704;6.398;2023-04-10T15:57:53;14.50;99.90
54898;DHT22;40800;52.704;6.398;2023-04-10T16:00:19;14.40;99.90
54898;DHT22;40800;52.704;6.398;2023-04-10T16:02:45;14.30;1.00
54898;DHT22;40800;52.704;6.398;2023-04-10T16:05:10;14.20;1.00
54898;DHT22;40800;52.704;6.398;2023-04-10T16:07:36;14.00;1.00
54898;DHT22;40800;52.704;6.398;2023-04-10T16:10:04;13.90;1.00
54898;DHT22;40800;52.704;6.398;2023-04-10T16:12:30;13.70;1.00
54898;DHT22;40800;52.704;6.398;2023-04-10T16:14:56;13.60;68.90
54898;DHT22;40800;52.704;6.398;2023-04-10T16:17:21;13.40;99.90
54898;DHT22;40800;52.704;6.398;2023-04-10T16:19:47;13.30;99.90
54898;DHT22;40800;52.704;6.398;2023-04-10T16:22:12;13.30;99.90